Tuckerman, AR (72473)

08:49 PM CDT am 01. September 2014 (GMT -0500)
Newport | Change Station
CLOSE
Current Station
Flughafen
Location: Newport,
Höhe: 240 ft
Wetterstationen in der Umgebung
aktive Warnung: Flood Warning

Höhe 240 ft 35.64 °N, 91.17 °W | Updated 53 minutes ago

Clear
Heiter
81 °F
gefühlte 86 °F
N
9
Wind Wechselnd Wind aus Süd-Südost

Heute
Max. -- | schwach -- °F
--% Regenrisiko
Gestern
Max. -- | schwach -- °F
Precip. -- inch
6:36 AM 7:32 PM
Erstes Viertel, 46% visible
Druck 29.92 inch
Sichtweite 10.0 Meilen
Wolken Heiter
Hitzeindex 86 °F
Taupunkt 74 °F
Feuchtigkeit 79%
Regen 0.00 inch
Schneehöhe Nicht verfügbar..
UV 0 von 12
Pollen 10.70 von 12
Luftqualität Nicht verfügbar..
Flu Activity Nicht verfügbar..
METAR KM19 020056Z AUTO 15008KT 10SM CLR 27/23 A2992 RMK AO2 T02720233 SLP130

More Conditions Fewer Conditions

Druck 29.92 inch
Sichtweite 10.0 Meilen
Wolken Heiter
Hitzeindex 86 °F
Taupunkt 74 °F
Feuchtigkeit 79%
Regen 0.00 inch
Schneehöhe Nicht verfügbar..
UV 0 von 12
Pollen 10.70 von 12
Luftqualität Nicht verfügbar..
Flu Activity Nicht verfügbar..
METAR KM19 020056Z AUTO 15008KT 10SM CLR 27/23 A2992 RMK AO2 T02720233 SLP130

More Conditions Fewer Conditions

10-Day Weather Forecast

Almanac

Astronomie

Sep. 01, 2014 Aufgang Untergang
Genaue Zeit 06:36 CDT 19:32 CDT
Bürgerliche Dämmerung 06:10 CDT 19:58 CDT
Nautische Dämmerung 05:39 CDT 20:28 CDT
Astronomische Dämmerung 05:07 CDT 21:00 CDT
Mond 13:09 CDT (9/1) 23:47 CDT (9/1)
Länge des sichtbaren Lichts 13h 47m
Tageslänge
12h 55m
Tomorrow will be 2m 10s shorter.
Erstes Viertel, 46% of the Moon is Illuminated
Heute
Erstes Viertel
Sept 2
Erstes Viertel
Sept 8
Vollmond
Sept 15
Letztes Viertel
Sept 24
Neu

Heutige Rekorde

State Highs State Lows

Community

WunderPhotos

Upload Photos

1,749,476 Fotos hochgeladen!

Nearby

Schneehöhe

Station Depth Höhe
Kein Neuschnee gemeldet.

Erdbebenaktivität

Stadt Distance Mag. Time & Date
Tiptonville, Tennessee 104 Meilen 2.9 23:19 CDT
2014-08-31
Minimum magnitude displayed is 2.5.

küstennahe Wassertemperaturen

Ort Temperatur
Kein Stationsbericht

Wetterstationen in der Umgebung